createdAt,value
2017-10-20T00:00:44.018Z,99.99
2017-10-20T00:01:43.987Z,99.99
2017-10-20T00:02:44.303Z,99.99
2017-10-20T00:03:44.308Z,99.99
2017-10-20T00:04:44.291Z,99.99
2017-10-20T00:05:43.940Z,99.99
2017-10-20T00:06:44.255Z,99.99
2017-10-20T00:07:44.248Z,99.99
2017-10-20T00:08:43.902Z,99.99
2017-10-20T00:09:44.228Z,99.99
2017-10-20T00:10:44.224Z,99.99
2017-10-20T00:11:44.205Z,99.99
2017-10-20T00:12:44.186Z,99.99
2017-10-20T00:13:44.175Z,99.99
2017-10-20T00:14:43.834Z,99.99
2017-10-20T00:15:43.819Z,99.99
2017-10-20T00:16:43.857Z,99.99
2017-10-20T00:17:43.795Z,99.99
2017-10-20T00:18:43.784Z,99.99
2017-10-20T00:19:43.769Z,99.99
2017-10-20T00:20:44.095Z,99.99
2017-10-20T00:21:44.122Z,99.99
2017-10-20T00:22:44.067Z,99.99
2017-10-20T00:23:44.063Z,99.99
2017-10-20T00:24:43.710Z,99.99
2017-10-20T00:25:44.033Z,99.99
2017-10-20T00:26:44.075Z,99.99
2017-10-20T00:27:43.676Z,99.99
2017-10-20T00:28:44.001Z,99.99
2017-10-20T00:29:43.652Z,99.99
2017-10-20T00:30:43.639Z,99.99
2017-10-20T00:31:43.965Z,99.99
2017-10-20T00:32:43.951Z,99.99
2017-10-20T00:33:43.609Z,99.99
2017-10-20T00:34:43.594Z,99.99
2017-10-20T00:35:43.578Z,99.99
2017-10-20T00:36:43.569Z,99.99
2017-10-20T00:37:43.891Z,99.99
2017-10-20T00:38:43.545Z,99.99
2017-10-20T00:39:43.532Z,99.99
2017-10-20T00:40:43.868Z,99.99
2017-10-20T00:41:43.561Z,99.99
2017-10-20T00:42:43.841Z,99.99
2017-10-20T00:43:43.488Z,99.99
2017-10-20T00:44:43.814Z,99.99
2017-10-20T00:45:43.809Z,99.99
2017-10-20T00:46:43.449Z,99.99
2017-10-20T00:47:43.776Z,99.99
2017-10-20T00:48:43.429Z,99.99
2017-10-20T00:49:43.413Z,99.99
2017-10-20T00:50:43.739Z,99.99
2017-10-20T00:51:43.776Z,99.99
2017-10-20T00:52:43.716Z,99.99
2017-10-20T00:53:43.366Z,99.99
2017-10-20T00:54:43.353Z,99.99
2017-10-20T00:55:43.677Z,99.99
2017-10-20T00:56:43.666Z,99.99
2017-10-20T00:57:43.651Z,99.99
2017-10-20T00:58:43.306Z,99.99
2017-10-20T00:59:43.298Z,99.99
2017-10-20T01:00:43.290Z,99.99
2017-10-20T01:01:43.273Z,99.99
2017-10-20T01:02:43.259Z,99.99
2017-10-20T01:03:43.247Z,99.99
2017-10-20T01:04:43.235Z,99.99
2017-10-20T01:05:43.556Z,99.99
2017-10-20T01:06:43.547Z,99.99
2017-10-20T01:07:43.530Z,99.99
2017-10-20T01:08:43.187Z,99.99
2017-10-20T01:09:43.518Z,99.99
2017-10-20T01:10:43.163Z,99.99
2017-10-20T01:11:43.153Z,99.99
2017-10-20T01:12:43.475Z,99.99
2017-10-20T01:13:43.462Z,99.99
2017-10-20T01:14:43.446Z,99.99
2017-10-20T01:15:43.434Z,99.99
2017-10-20T01:16:43.625Z,99.99
2017-10-20T01:17:43.417Z,99.99
2017-10-20T01:18:43.400Z,99.99
2017-10-20T01:19:43.057Z,99.99
2017-10-20T01:20:43.039Z,99.99
2017-10-20T01:21:43.031Z,99.99
2017-10-20T01:22:43.359Z,99.99
2017-10-20T01:23:43.006Z,99.99
2017-10-20T01:24:43.334Z,99.99
2017-10-20T01:25:43.314Z,99.99
2017-10-20T01:26:42.972Z,99.99
2017-10-20T01:27:42.959Z,99.99
2017-10-20T01:28:42.945Z,99.99
2017-10-20T01:29:42.937Z,99.24
2017-10-20T01:30:42.927Z,99.52
2017-10-20T01:31:43.251Z,99.81
2017-10-20T01:32:43.234Z,98.76
2017-10-20T01:33:43.226Z,98.57
2017-10-20T01:34:42.876Z,98.76
2017-10-20T01:35:43.200Z,98.66
2017-10-20T01:36:43.387Z,97.8
2017-10-20T01:37:42.835Z,98.66
2017-10-20T01:38:42.822Z,97.9
2017-10-20T01:39:42.810Z,97.13
2017-10-20T01:40:43.143Z,96.75
2017-10-20T01:41:43.117Z,95.03
2017-10-20T01:42:43.114Z,94.55
2017-10-20T01:43:42.764Z,94.17
2017-10-20T01:44:43.093Z,94.07
2017-10-20T01:45:43.071Z,93.69
2017-10-20T01:46:43.060Z,92.83
2017-10-20T01:47:43.252Z,91.68
2017-10-20T01:48:42.706Z,91.2
2017-10-20T01:49:43.041Z,91.2
2017-10-20T01:50:42.681Z,91.87
2017-10-20T01:51:43.004Z,92.44
2017-10-20T01:52:43.025Z,91.97
2017-10-20T01:53:42.642Z,91.11
2017-10-20T01:54:42.971Z,91.39
2017-10-20T01:55:42.619Z,92.25
2017-10-20T01:56:42.605Z,91.97
2017-10-20T01:57:42.591Z,92.35
2017-10-20T01:58:42.915Z,92.25
2017-10-20T01:59:42.902Z,91.97
2017-10-20T02:00:42.891Z,92.54
2017-10-20T02:01:42.874Z,91.68
2017-10-20T02:02:42.866Z,91.87
2017-10-20T02:03:42.852Z,91.68
2017-10-20T02:04:42.512Z,91.87
2017-10-20T02:05:42.491Z,91.3
2017-10-20T02:06:42.812Z,90.72
2017-10-20T02:07:42.465Z,92.44
2017-10-20T02:08:42.455Z,92.54
2017-10-20T02:09:42.443Z,93.4
2017-10-20T02:10:42.432Z,95.56
2017-10-20T02:11:42.752Z,96.18
2017-10-20T02:12:42.742Z,97.18
2017-10-20T02:13:42.734Z,97.8
2017-10-20T02:14:42.713Z,98.95
2017-10-20T02:15:42.697Z,98.86
2017-10-20T02:16:42.695Z,98.76
2017-10-20T02:17:42.680Z,97.8
2017-10-20T02:18:42.670Z,98.57
2017-10-20T02:19:42.653Z,98.95
2017-10-20T02:20:42.305Z,99.33
2017-10-20T02:21:42.629Z,98.57
2017-10-20T02:22:42.284Z,98.19
2017-10-20T02:23:42.600Z,98.38
2017-10-20T02:24:42.259Z,98.57
2017-10-20T02:25:42.578Z,98.86
2017-10-20T02:26:42.573Z,98.28
2017-10-20T02:27:42.551Z,97.61
2017-10-20T02:28:42.542Z,98.47
2017-10-20T02:29:42.532Z,98.76
2017-10-20T02:30:42.517Z,96.84
2017-10-20T02:31:42.503Z,96.27
2017-10-20T02:32:42.155Z,95.61
2017-10-20T02:33:42.142Z,95.12
2017-10-20T02:34:42.131Z,95.89
2017-10-20T02:35:42.455Z,95.46
2017-10-20T02:36:42.107Z,95.56
2017-10-20T02:37:42.428Z,95.7
2017-10-20T02:38:42.083Z,93.84
2017-10-20T02:39:42.068Z,94.02
2017-10-20T02:40:42.395Z,94.79
2017-10-20T02:41:42.383Z,95.94
2017-10-20T02:42:42.377Z,95.36
2017-10-20T02:43:42.360Z,95.84
2017-10-20T02:44:42.013Z,96.51
2017-10-20T02:45:42.335Z,96.42
2017-10-20T02:46:42.319Z,97.95
2017-10-20T02:47:42.309Z,96.7
2017-10-20T02:48:42.290Z,97.56
2017-10-20T02:49:42.282Z,97.18
2017-10-20T02:50:41.931Z,97.18
2017-10-20T02:51:42.252Z,96.89
2017-10-20T02:52:42.240Z,96.03
2017-10-20T02:53:41.900Z,95.94
2017-10-20T02:54:42.217Z,96.13
2017-10-20T02:55:41.872Z,96.61
2017-10-20T02:56:42.191Z,96.61
2017-10-20T02:57:42.183Z,94.6
2017-10-20T02:58:41.830Z,94.31
2017-10-20T02:59:42.163Z,95.27
2017-10-20T03:00:41.808Z,95.65
2017-10-20T03:01:42.126Z,95.75
2017-10-20T03:02:41.780Z,96.22
2017-10-20T03:03:41.767Z,95.65
2017-10-20T03:04:41.755Z,95.75
2017-10-20T03:05:42.076Z,95.07
2017-10-20T03:06:41.731Z,93.45
2017-10-20T03:07:42.049Z,93.55
2017-10-20T03:08:42.042Z,92.02
2017-10-20T03:09:41.694Z,91.53
2017-10-20T03:10:42.021Z,90.58
2017-10-20T03:11:41.666Z,90.3
2017-10-20T03:12:41.664Z,90.48
2017-10-20T03:13:41.985Z,90.39
2017-10-20T03:14:41.969Z,90.3
2017-10-20T03:15:41.957Z,89.15
2017-10-20T03:16:42.148Z,89.24
2017-10-20T03:17:41.934Z,88.09
2017-10-20T03:18:41.921Z,88.48
2017-10-20T03:19:41.567Z,88.95
2017-10-20T03:20:41.892Z,90.01
2017-10-20T03:21:41.883Z,90.48
2017-10-20T03:22:41.868Z,91.53
2017-10-20T03:23:41.516Z,91.53
2017-10-20T03:24:41.836Z,90.01
2017-10-20T03:25:41.825Z,89.81
2017-10-20T03:26:41.479Z,90.58
2017-10-20T03:27:41.467Z,90.67
2017-10-20T03:28:41.784Z,90.67
2017-10-20T03:29:41.774Z,91.06
2017-10-20T03:30:41.435Z,90.67
2017-10-20T03:31:41.749Z,90.1
2017-10-20T03:32:41.739Z,89.43
2017-10-20T03:33:41.392Z,89.24
2017-10-20T03:34:41.718Z,88.95
2017-10-20T03:35:41.363Z,89.05
2017-10-20T03:36:41.682Z,88.76
2017-10-20T03:37:41.677Z,89.43
2017-10-20T03:38:41.668Z,89.62
2017-10-20T03:39:41.649Z,88.48
2017-10-20T03:40:41.305Z,89.34
2017-10-20T03:41:41.624Z,89.53
2017-10-20T03:42:41.613Z,89.24
2017-10-20T03:43:41.263Z,89.34
2017-10-20T03:44:41.587Z,89.43
2017-10-20T03:45:41.577Z,90.1
2017-10-20T03:46:41.555Z,89.81
2017-10-20T03:47:41.550Z,90.67
2017-10-20T03:48:41.545Z,91.35
2017-10-20T03:49:41.187Z,90.67
2017-10-20T03:50:41.174Z,89.81
2017-10-20T03:51:41.496Z,90.77
2017-10-20T03:52:41.482Z,89.91
2017-10-20T03:53:41.483Z,90.58
2017-10-20T03:54:41.126Z,89.91
2017-10-20T03:55:41.112Z,89.91
2017-10-20T03:56:41.100Z,90.2
2017-10-20T03:57:41.086Z,90.87
2017-10-20T03:58:41.408Z,90.39
2017-10-20T03:59:41.062Z,89.62
2017-10-20T04:00:41.047Z,90.58
2017-10-20T04:01:41.367Z,90.39
2017-10-20T04:02:41.024Z,88.86
2017-10-20T04:03:41.348Z,88.95
2017-10-20T04:04:40.996Z,88.48
2017-10-20T04:05:41.319Z,88.19
2017-10-20T04:06:41.311Z,88.57
2017-10-20T04:07:40.958Z,89.05
2017-10-20T04:08:40.944Z,87.81
2017-10-20T04:09:41.264Z,88.48
2017-10-20T04:10:41.259Z,87.19
2017-10-20T04:11:41.238Z,87.66
2017-10-20T04:12:41.227Z,87.23
2017-10-20T04:13:40.880Z,87.81
2017-10-20T04:14:41.208Z,87.62
2017-10-20T04:15:40.859Z,87.9
2017-10-20T04:16:40.842Z,88.38
2017-10-20T04:17:41.170Z,90.16
2017-10-20T04:18:40.815Z,91.25
2017-10-20T04:19:41.142Z,94.36
2017-10-20T04:20:40.793Z,97.85
2017-10-20T04:21:40.782Z,98.14
2017-10-20T04:22:41.101Z,99.99
2017-10-20T04:23:41.091Z,99.99
2017-10-20T04:24:40.738Z,99.99
2017-10-20T04:25:41.074Z,99.99
2017-10-20T04:26:41.048Z,99.99
2017-10-20T04:27:41.039Z,99.99
2017-10-20T04:28:40.692Z,99.99
2017-10-20T04:29:40.677Z,99.99
2017-10-20T04:30:40.998Z,99.99
2017-10-20T04:31:40.985Z,99.99
2017-10-20T04:32:40.978Z,99.99
2017-10-20T04:33:40.957Z,99.99
2017-10-20T04:34:40.948Z,99.99
2017-10-20T04:35:40.601Z,99.99
2017-10-20T04:36:40.589Z,99.99
2017-10-20T04:37:40.910Z,99.99
2017-10-20T04:38:40.563Z,99.99
2017-10-20T04:39:40.882Z,99.99
2017-10-20T04:40:40.870Z,99.99
2017-10-20T04:41:40.526Z,99.99
2017-10-20T04:42:40.846Z,99.99
2017-10-20T04:43:40.502Z,99.99
2017-10-20T04:44:40.825Z,99.99
2017-10-20T04:45:40.481Z,99.99
2017-10-20T04:46:40.796Z,99.99
2017-10-20T04:47:40.793Z,99.99
2017-10-20T04:48:40.441Z,99.99
2017-10-20T04:49:40.770Z,99.99
2017-10-20T04:50:40.415Z,99.99
2017-10-20T04:51:40.402Z,99.99
2017-10-20T04:52:40.721Z,99.99
2017-10-20T04:53:40.383Z,99.99
2017-10-20T04:54:40.701Z,99.99
2017-10-20T04:55:40.684Z,99.99
2017-10-20T04:56:40.673Z,99.99
2017-10-20T04:57:40.662Z,99.99
2017-10-20T04:58:40.317Z,99.99
2017-10-20T04:59:40.302Z,99.99
2017-10-20T05:00:40.634Z,99.99
2017-10-20T05:01:40.611Z,99.99
2017-10-20T05:02:40.601Z,99.99
2017-10-20T05:03:40.621Z,99.99
2017-10-20T05:04:40.243Z,99.99
2017-10-20T05:05:40.565Z,99.99
2017-10-20T05:06:40.223Z,99.99
2017-10-20T05:07:40.209Z,99.99
2017-10-20T05:08:40.199Z,99.99
2017-10-20T05:09:40.523Z,99.99
2017-10-20T05:10:40.500Z,99.99
2017-10-20T05:11:40.160Z,99.99
2017-10-20T05:12:40.522Z,99.99
2017-10-20T05:13:40.469Z,99.99
2017-10-20T05:14:40.119Z,99.99
2017-10-20T05:15:40.453Z,99.99
2017-10-20T05:16:40.100Z,99.99
2017-10-20T05:17:40.290Z,99.99
2017-10-20T05:18:40.411Z,99.99
2017-10-20T05:19:40.397Z,99.99
2017-10-20T05:20:40.053Z,99.99
2017-10-20T05:21:40.037Z,99.99
2017-10-20T05:22:40.026Z,99.99
2017-10-20T05:23:40.014Z,99.99
2017-10-20T05:24:40.337Z,99.99
2017-10-20T05:25:39.989Z,99.99
2017-10-20T05:26:39.979Z,99.99
2017-10-20T05:27:40.303Z,99.99
2017-10-20T05:28:39.954Z,99.99
2017-10-20T05:29:39.944Z,99.99
2017-10-20T05:30:40.295Z,99.99
2017-10-20T05:31:40.250Z,99.99
2017-10-20T05:32:40.246Z,99.99
2017-10-20T05:33:39.894Z,99.99
2017-10-20T05:34:40.218Z,99.99
2017-10-20T05:35:40.200Z,99.99
2017-10-20T05:36:40.188Z,99.99
2017-10-20T05:37:40.181Z,99.99
2017-10-20T05:38:40.162Z,99.99
2017-10-20T05:39:40.157Z,99.99
2017-10-20T05:40:40.143Z,99.99
2017-10-20T05:41:40.126Z,97.33
2017-10-20T05:42:40.118Z,99.99
2017-10-20T05:43:40.135Z,99.99
2017-10-20T05:44:39.754Z,98
2017-10-20T05:45:40.073Z,99.99
2017-10-20T05:46:40.062Z,98.14
2017-10-20T05:47:39.716Z,99.99
2017-10-20T05:48:40.035Z,98.81
2017-10-20T05:49:40.024Z,99.99
2017-10-20T05:50:39.677Z,89.9
2017-10-20T05:51:39.663Z,86.84
2017-10-20T05:52:39.992Z,91.44
2017-10-20T05:53:39.973Z,86.22
2017-10-20T05:54:39.957Z,87.76
2017-10-20T05:55:39.612Z,86.7
2017-10-20T05:56:39.599Z,82.2
2017-10-20T05:57:39.581Z,80.58
2017-10-20T05:58:39.902Z,76.27
2017-10-20T05:59:39.892Z,76.27
2017-10-20T06:00:39.875Z,69.57
2017-10-20T06:01:39.878Z,73.79
2017-10-20T06:02:39.513Z,67.56
2017-10-20T06:03:39.834Z,61.91
2017-10-20T06:04:39.824Z,58.47
2017-10-20T06:05:39.813Z,56.34
2017-10-20T06:06:39.457Z,52.99
2017-10-20T06:07:39.447Z,52.8
2017-10-20T06:08:39.439Z,50.02
2017-10-20T06:09:39.424Z,48.11
2017-10-20T06:10:39.744Z,46.3
2017-10-20T06:11:39.390Z,44.38
2017-10-20T06:12:39.709Z,43.04
2017-10-20T06:13:39.691Z,41.8
2017-10-20T06:14:39.690Z,39.98
2017-10-20T06:15:39.669Z,37.97
2017-10-20T06:16:39.679Z,37.4
2017-10-20T06:17:39.316Z,36.63
2017-10-20T06:18:39.296Z,35
2017-10-20T06:19:39.612Z,34.43
2017-10-20T06:20:39.263Z,32.52
2017-10-20T06:21:39.250Z,30.22
2017-10-20T06:22:39.235Z,28.79
2017-10-20T06:23:39.220Z,27.64
2017-10-20T06:24:39.203Z,26.87
2017-10-20T06:25:39.531Z,25.54
2017-10-20T06:26:39.178Z,24.01
2017-10-20T06:27:39.164Z,22.76
2017-10-20T06:28:39.479Z,22.28
2017-10-20T06:29:39.469Z,21.81
2017-10-20T06:30:39.119Z,21.33
2017-10-20T06:31:39.439Z,20.75
2017-10-20T06:32:39.427Z,20.56
2017-10-20T06:33:39.075Z,20.47
2017-10-20T06:34:39.393Z,19.99
2017-10-20T06:35:39.387Z,19.8
2017-10-20T06:36:39.378Z,19.32
2017-10-20T06:37:39.356Z,19.32
2017-10-20T06:38:39.007Z,18.94
2017-10-20T06:39:38.989Z,18.46
2017-10-20T06:40:39.311Z,18.37
2017-10-20T06:41:39.293Z,17.98
2017-10-20T06:42:38.950Z,17.79
2017-10-20T06:43:39.267Z,17.6
2017-10-20T06:44:39.258Z,17.02
2017-10-20T06:45:38.905Z,17.02
2017-10-20T06:46:38.891Z,17.02
2017-10-20T06:47:38.879Z,16.74
2017-10-20T06:48:38.860Z,16.83
2017-10-20T06:49:39.186Z,16.45
2017-10-20T06:50:39.173Z,16.45
2017-10-20T06:51:39.158Z,15.78
2017-10-20T06:52:39.138Z,15.78
2017-10-20T06:53:38.789Z,15.49
2017-10-20T06:54:39.112Z,15.59
2017-10-20T06:55:39.107Z,15.2
2017-10-20T06:56:38.748Z,15.3
2017-10-20T06:57:39.068Z,14.92
2017-10-20T06:58:39.068Z,14.54
2017-10-20T06:59:38.710Z,14.73
2017-10-20T07:00:39.028Z,14.63
2017-10-20T07:01:38.680Z,14.83
2017-10-20T07:02:38.670Z,14.34
2017-10-20T07:03:38.994Z,14.34
2017-10-20T07:04:38.637Z,14.25
2017-10-20T07:05:38.626Z,14.15
2017-10-20T07:06:38.607Z,13.87
2017-10-20T07:07:38.938Z,14.06
2017-10-20T07:08:38.581Z,13.87
2017-10-20T07:09:38.906Z,13.77
2017-10-20T07:10:38.888Z,13.77
2017-10-20T07:11:38.881Z,13.48
2017-10-20T07:12:38.526Z,13.1
2017-10-20T07:13:38.845Z,13.01
2017-10-20T07:14:38.833Z,12.91
2017-10-20T07:15:38.818Z,12.43
2017-10-20T07:16:38.472Z,12.05
2017-10-20T07:17:38.655Z,12.05
2017-10-20T07:18:38.441Z,11.47
2017-10-20T07:19:38.770Z,11.76
2017-10-20T07:20:38.418Z,11.38
2017-10-20T07:21:38.741Z,11.29
2017-10-20T07:22:38.719Z,11.09
2017-10-20T07:23:38.375Z,11.29
2017-10-20T07:24:38.358Z,10.9
2017-10-20T07:25:38.684Z,10.8
2017-10-20T07:26:38.330Z,10.71
2017-10-20T07:27:38.316Z,10.9
2017-10-20T07:28:38.300Z,10.8
2017-10-20T07:29:38.621Z,10.42
2017-10-20T07:30:38.273Z,10.33
2017-10-20T07:31:38.589Z,10.23
2017-10-20T07:32:38.584Z,10.61
2017-10-20T07:33:38.579Z,10.33
2017-10-20T07:34:38.218Z,9.84
2017-10-20T07:35:38.205Z,10.03
2017-10-20T07:36:38.191Z,10.03
2017-10-20T07:37:38.509Z,9.94
2017-10-20T07:38:38.500Z,9.75
2017-10-20T07:39:38.483Z,9.56
2017-10-20T07:40:38.475Z,9.66
2017-10-20T07:41:38.458Z,9.75
2017-10-20T07:42:38.144Z,9.66
2017-10-20T07:43:38.466Z,9.66
2017-10-20T07:44:38.413Z,9.94
2017-10-20T07:45:38.410Z,9.27
2017-10-20T07:46:38.049Z,9.56
2017-10-20T07:47:38.377Z,9.47
2017-10-20T07:48:38.028Z,9.28
2017-10-20T07:49:38.010Z,8.99
2017-10-20T07:50:38.330Z,9.17
2017-10-20T07:51:37.982Z,9.08
2017-10-20T07:52:37.973Z,8.8
2017-10-20T07:53:37.970Z,8.6
2017-10-20T07:54:38.283Z,8.7
2017-10-20T07:55:37.933Z,8.8
2017-10-20T07:56:37.914Z,8.32
2017-10-20T07:57:37.901Z,8.51
2017-10-20T07:58:38.219Z,8.51
2017-10-20T07:59:37.872Z,8.51
2017-10-20T08:00:37.859Z,8.22
2017-10-20T08:01:38.189Z,8.13
2017-10-20T08:02:38.175Z,8.03
2017-10-20T08:03:38.153Z,8.22
2017-10-20T08:04:38.137Z,8.03
2017-10-20T08:05:37.792Z,8.13
2017-10-20T08:06:38.111Z,8.13
2017-10-20T08:07:38.103Z,7.65
2017-10-20T08:08:38.098Z,7.75
2017-10-20T08:09:38.082Z,7.56
2017-10-20T08:10:37.725Z,7.56
2017-10-20T08:11:38.047Z,7.84
2017-10-20T08:12:37.702Z,8.03
2017-10-20T08:13:38.029Z,7.84
2017-10-20T08:14:38.007Z,8.13
2017-10-20T08:15:37.667Z,7.93
2017-10-20T08:16:37.647Z,8.32
2017-10-20T08:17:37.632Z,7.93
2017-10-20T08:18:37.634Z,8.22
2017-10-20T08:19:37.938Z,8.03
2017-10-20T08:20:37.937Z,8.22
2017-10-20T08:21:37.590Z,8.03
2017-10-20T08:22:37.574Z,8.32
2017-10-20T08:23:37.884Z,8.22
2017-10-20T08:24:37.542Z,8.03
2017-10-20T08:25:37.524Z,8.03
2017-10-20T08:26:37.857Z,8.32
2017-10-20T08:27:37.839Z,8.42
2017-10-20T08:28:37.849Z,8.99
2017-10-20T08:29:37.817Z,8.7
2017-10-20T08:30:37.462Z,8.89
2017-10-20T08:31:37.445Z,8.89
2017-10-20T08:32:37.769Z,8.42
2017-10-20T08:33:37.770Z,9.66
2017-10-20T08:34:37.748Z,9.66
2017-10-20T08:35:37.417Z,9.56
2017-10-20T08:36:37.715Z,11
2017-10-20T08:37:37.706Z,10.62
2017-10-20T08:38:37.360Z,10.43
2017-10-20T08:39:37.672Z,12.73
2017-10-20T08:40:37.329Z,12.05
2017-10-20T08:41:37.650Z,11.29
2017-10-20T08:42:37.299Z,11.19
2017-10-20T08:43:37.621Z,12.63
2017-10-20T08:44:37.604Z,11.77
2017-10-20T08:45:37.601Z,12.15
2017-10-20T08:46:37.582Z,11.19
2017-10-20T08:47:37.235Z,11.77
2017-10-20T08:48:37.225Z,12.15
2017-10-20T08:49:37.206Z,11.87
2017-10-20T08:50:37.535Z,14.93
2017-10-20T08:51:37.515Z,13.3
2017-10-20T08:52:37.170Z,14.64
2017-10-20T08:53:37.153Z,14.16
2017-10-20T08:54:37.482Z,13.49
2017-10-20T08:55:37.466Z,13.78
2017-10-20T08:56:37.449Z,15.5
2017-10-20T08:57:37.433Z,16.36
2017-10-20T08:58:37.090Z,16.94
2017-10-20T08:59:37.412Z,16.74
2017-10-20T09:00:37.399Z,17.13
2017-10-20T09:01:37.386Z,17.03
2017-10-20T09:02:37.375Z,17.22
2017-10-20T09:03:37.358Z,17.13
2017-10-20T09:04:37.357Z,16.27
2017-10-20T09:05:37.329Z,19.23
2017-10-20T09:06:36.986Z,19.42
2017-10-20T09:07:37.312Z,19.13
2017-10-20T09:08:37.299Z,18.37
2017-10-20T09:09:37.281Z,19.04
2017-10-20T09:10:37.267Z,19.9
2017-10-20T09:11:36.921Z,18.66
2017-10-20T09:12:37.238Z,19.52
2017-10-20T09:13:37.232Z,19.13
2017-10-20T09:14:37.215Z,18.76
2017-10-20T09:15:37.202Z,20
2017-10-20T09:16:37.187Z,19.42
2017-10-20T09:17:37.041Z,18.76
2017-10-20T09:18:36.827Z,19.04
2017-10-20T09:19:36.814Z,18.18
2017-10-20T09:20:37.147Z,19.04
2017-10-20T09:21:37.124Z,18.76
2017-10-20T09:22:37.112Z,19.62
2017-10-20T09:23:37.093Z,17.13
2017-10-20T09:24:36.745Z,16.94
2017-10-20T09:25:37.071Z,18.37
2017-10-20T09:26:37.060Z,16.84
2017-10-20T09:27:36.717Z,16.94
2017-10-20T09:28:37.028Z,16.84
2017-10-20T09:29:36.682Z,16.74
2017-10-20T09:30:37.010Z,15.69
2017-10-20T09:31:36.986Z,14.45
2017-10-20T09:32:36.642Z,14.93
2017-10-20T09:33:36.961Z,13.49
2017-10-20T09:34:36.950Z,13.2
2017-10-20T09:35:36.933Z,13.68
2017-10-20T09:36:36.589Z,13.97
2017-10-20T09:37:36.574Z,13.87
2017-10-20T09:38:36.560Z,13.97
2017-10-20T09:39:36.886Z,12.92
2017-10-20T09:40:36.862Z,13.2
2017-10-20T09:41:36.861Z,13.11
2017-10-20T09:42:36.511Z,13.49
2017-10-20T09:43:36.501Z,13.68
2017-10-20T09:44:36.481Z,12.63
2017-10-20T09:45:36.798Z,13.2
2017-10-20T09:46:36.788Z,13.59
2017-10-20T09:47:36.773Z,13.3
2017-10-20T09:48:36.763Z,13.49
2017-10-20T09:49:36.421Z,14.06
2017-10-20T09:50:36.402Z,13.3
2017-10-20T09:51:36.386Z,13.4
2017-10-20T09:52:36.371Z,13.01
2017-10-20T09:53:36.361Z,14.06
2017-10-20T09:54:36.346Z,18.76
2017-10-20T09:55:36.665Z,22.77
2017-10-20T09:56:36.653Z,26.22
2017-10-20T09:57:36.636Z,24.49
2017-10-20T09:58:36.293Z,22.76
2017-10-20T09:59:36.621Z,22.76
2017-10-20T10:00:36.276Z,22.96
2017-10-20T10:01:36.609Z,22.47
2017-10-20T10:02:36.575Z,22.38
2017-10-20T10:03:36.559Z,21.81
2017-10-20T10:04:36.551Z,21.23
2017-10-20T10:05:36.545Z,22.57
2017-10-20T10:06:36.187Z,22.56
2017-10-20T10:07:36.507Z,20.94
2017-10-20T10:08:36.492Z,20.75
2017-10-20T10:09:36.143Z,21.71
2017-10-20T10:10:36.136Z,19.6
2017-10-20T10:11:36.451Z,21.98
2017-10-20T10:12:36.106Z,19.69
2017-10-20T10:13:36.087Z,20.65
2017-10-20T10:14:36.409Z,20.55
2017-10-20T10:15:36.394Z,19.12
2017-10-20T10:16:36.384Z,21.03
2017-10-20T10:17:36.364Z,22.18
2017-10-20T10:18:36.355Z,22.18
2017-10-20T10:19:36.337Z,21.22
2017-10-20T10:20:36.326Z,19.6
2017-10-20T10:21:36.314Z,19.5
2017-10-20T10:22:35.960Z,20.94
2017-10-20T10:23:35.956Z,19.6
2017-10-20T10:24:36.268Z,19.12
2017-10-20T10:25:36.258Z,18.54
2017-10-20T10:26:36.240Z,18.45
2017-10-20T10:27:35.897Z,19.89
2017-10-20T10:28:36.214Z,19.7
2017-10-20T10:29:36.207Z,20.85
2017-10-20T10:30:35.851Z,20.85
2017-10-20T10:31:36.178Z,21.71
2017-10-20T10:32:36.155Z,21.33
2017-10-20T10:33:36.144Z,21.52
2017-10-20T10:34:36.132Z,22.28
2017-10-20T10:35:35.784Z,24.29
2017-10-20T10:36:36.104Z,24.3
2017-10-20T10:37:36.091Z,23.54
2017-10-20T10:38:36.097Z,25.93
2017-10-20T10:39:35.729Z,25.55
2017-10-20T10:40:35.717Z,29.77
2017-10-20T10:41:36.042Z,40.69
2017-10-20T10:42:35.690Z,39.06
2017-10-20T10:43:35.679Z,42.7
2017-10-20T10:44:35.667Z,43.1
2017-10-20T10:45:35.989Z,44.26
2017-10-20T10:46:35.645Z,46.84
2017-10-20T10:47:35.961Z,46.26
2017-10-20T10:48:35.621Z,45.89
2017-10-20T10:49:35.604Z,51.63
2017-10-20T10:50:35.931Z,63.42
2017-10-20T10:51:35.623Z,67.15
2017-10-20T10:52:35.566Z,70.03
2017-10-20T10:53:35.890Z,69.74
2017-10-20T10:54:35.547Z,73.47
2017-10-20T10:55:35.866Z,71.75
2017-10-20T10:56:35.522Z,61.02
2017-10-20T10:57:35.846Z,73.28
2017-10-20T10:58:35.500Z,62.74
2017-10-20T10:59:35.485Z,69.74
2017-10-20T11:00:35.821Z,71.27
2017-10-20T11:01:36.001Z,86.88
2017-10-20T11:02:35.450Z,77.59
2017-10-20T11:03:35.854Z,82.29
2017-10-20T11:04:35.787Z,88.32
2017-10-20T11:05:35.751Z,91
2017-10-20T11:06:35.780Z,94.55
2017-10-20T11:07:35.405Z,86.69
2017-10-20T11:08:35.383Z,96.75
2017-10-20T11:09:35.742Z,99.99
2017-10-20T11:10:35.701Z,93.02
2017-10-20T11:11:35.685Z,94.26
2017-10-20T11:12:35.339Z,91.67
2017-10-20T11:13:35.669Z,88.7
2017-10-20T11:14:35.321Z,92.06
2017-10-20T11:15:35.304Z,97.04
2017-10-20T11:16:35.289Z,98.72
2017-10-20T11:17:35.480Z,97.38
2017-10-20T11:18:35.269Z,94.4
2017-10-20T11:19:35.592Z,99.99
2017-10-20T11:20:35.592Z,93.44
2017-10-20T11:21:35.568Z,94.26
2017-10-20T11:22:35.226Z,99.99
2017-10-20T11:23:35.545Z,99.99
2017-10-20T11:24:35.535Z,99.24
2017-10-20T11:25:35.525Z,98.38
2017-10-20T11:26:35.518Z,99.99
2017-10-20T11:27:35.166Z,99.99
2017-10-20T11:28:35.161Z,95.7
2017-10-20T11:29:35.144Z,99.99
2017-10-20T11:30:35.131Z,99.99
2017-10-20T11:31:35.456Z,99.99
2017-10-20T11:32:35.447Z,99.99
2017-10-20T11:33:35.433Z,99.99
2017-10-20T11:34:35.429Z,99.99
2017-10-20T11:35:35.417Z,99.99
2017-10-20T11:36:35.403Z,99.99
2017-10-20T11:37:35.496Z,99.99
2017-10-20T11:38:35.382Z,99.99
2017-10-20T11:39:35.373Z,99.99
2017-10-20T11:40:35.027Z,99.99
2017-10-20T11:41:35.027Z,99.99
2017-10-20T11:42:35.347Z,99.99
2017-10-20T11:43:35.337Z,99.99
2017-10-20T11:44:35.327Z,99.99
2017-10-20T11:45:34.988Z,99.99
2017-10-20T11:46:34.989Z,99.99
2017-10-20T11:47:34.966Z,99.99
2017-10-20T11:48:35.295Z,99.99
2017-10-20T11:49:35.296Z,99.99
2017-10-20T11:50:35.272Z,99.99
2017-10-20T11:51:35.267Z,99.99
2017-10-20T11:52:35.316Z,99.99
2017-10-20T11:53:35.249Z,99.99
2017-10-20T11:54:34.904Z,99.99
2017-10-20T11:55:34.896Z,99.99
2017-10-20T11:56:34.889Z,99.99
2017-10-20T11:57:35.210Z,99.99
2017-10-20T11:58:35.209Z,99.99
2017-10-20T11:59:34.857Z,99.99
2017-10-20T12:00:35.182Z,99.99
2017-10-20T12:01:34.849Z,99.99
2017-10-20T12:02:34.832Z,99.99
2017-10-20T12:03:35.154Z,99.99
2017-10-20T12:04:35.160Z,99.99
2017-10-20T12:05:34.805Z,99.99
2017-10-20T12:06:34.816Z,99.99
2017-10-20T12:07:35.120Z,99.99
2017-10-20T12:08:35.117Z,99.99
2017-10-20T12:09:35.099Z,99.99
2017-10-20T12:10:35.094Z,99.99
2017-10-20T12:11:35.086Z,99.99
2017-10-20T12:12:34.745Z,99.99
2017-10-20T12:13:34.734Z,99.99
2017-10-20T12:14:35.059Z,99.99
2017-10-20T12:15:34.726Z,99.99
2017-10-20T12:16:35.044Z,99.99
2017-10-20T12:17:34.706Z,99.99
2017-10-20T12:18:34.699Z,99.99
2017-10-20T12:19:35.026Z,99.99
2017-10-20T12:20:34.701Z,99.99
2017-10-20T12:21:34.679Z,99.99
2017-10-20T12:22:34.686Z,99.99
2017-10-20T12:23:34.673Z,99.99
2017-10-20T12:24:34.661Z,99.99
2017-10-20T12:25:34.994Z,99.99
2017-10-20T12:26:34.978Z,99.99
2017-10-20T12:27:34.977Z,99.99
2017-10-20T12:28:34.971Z,99.99
2017-10-20T12:29:34.957Z,99.99
2017-10-20T12:30:34.953Z,99.99
2017-10-20T12:31:34.611Z,99.99
2017-10-20T12:32:34.942Z,99.99
2017-10-20T12:33:34.602Z,99.99
2017-10-20T12:34:34.592Z,99.99
2017-10-20T12:35:34.923Z,99.99
2017-10-20T12:36:34.583Z,99.99
2017-10-20T12:37:34.583Z,99.99
2017-10-20T12:38:34.563Z,99.99
2017-10-20T12:39:34.557Z,99.99
2017-10-20T12:40:34.880Z,99.99
2017-10-20T12:41:34.548Z,99.99
2017-10-20T12:42:34.538Z,99.99
2017-10-20T12:43:34.525Z,99.99
2017-10-20T12:44:34.516Z,99.99
2017-10-20T12:45:34.840Z,99.99
2017-10-20T12:46:34.830Z,99.99
2017-10-20T12:47:34.822Z,99.99
2017-10-20T12:48:34.821Z,99.99
2017-10-20T12:49:34.469Z,99.99
2017-10-20T12:50:34.459Z,99.99
2017-10-20T12:51:34.450Z,99.99
2017-10-20T12:52:34.439Z,99.99
2017-10-20T12:53:34.777Z,99.99
2017-10-20T12:54:34.765Z,99.99
2017-10-20T12:55:34.412Z,99.99
2017-10-20T12:56:34.409Z,99.99